createdAt,value
2022-10-30T00:01:02.159Z,13.13
2022-10-30T00:03:29.129Z,13.93
2022-10-30T00:05:55.913Z,14.23
2022-10-30T00:08:25.724Z,14.35
2022-10-30T00:10:53.119Z,14.63
2022-10-30T00:13:20.935Z,13.47
2022-10-30T00:15:52.382Z,14.00
2022-10-30T00:18:20.500Z,14.23
2022-10-30T00:23:14.544Z,14.83
2022-10-30T00:25:41.448Z,16.35
2022-10-30T00:28:08.495Z,14.23
2022-10-30T00:30:35.890Z,14.15
2022-10-30T00:33:05.803Z,14.45
2022-10-30T00:35:33.659Z,15.75
2022-10-30T00:38:01.436Z,16.50
2022-10-30T00:42:55.363Z,16.52
2022-10-30T00:45:22.194Z,17.05
2022-10-30T00:48:00.103Z,16.65
2022-10-30T00:50:31.498Z,15.80
2022-10-30T00:53:03.159Z,15.07
2022-10-30T00:56:05.035Z,15.88
2022-10-30T00:58:36.262Z,15.73
2022-10-30T01:01:07.905Z,14.80
2022-10-30T01:03:36.812Z,15.70
2022-10-30T01:06:07.783Z,14.30
2022-10-30T01:08:35.081Z,14.23
2022-10-30T01:11:03.392Z,13.90
2022-10-30T01:13:31.830Z,14.00
2022-10-30T01:16:19.709Z,15.13
2022-10-30T01:18:52.486Z,15.95
2022-10-30T01:21:33.570Z,17.38
2022-10-30T01:24:19.472Z,15.10
2022-10-30T01:27:07.126Z,15.98
2022-10-30T01:29:46.133Z,17.58
2022-10-30T01:32:36.804Z,17.10
2022-10-30T01:37:49.629Z,16.70
2022-10-30T01:40:18.550Z,17.80
2022-10-30T01:42:45.226Z,16.92
2022-10-30T01:45:19.744Z,16.90
2022-10-30T01:47:52.221Z,17.98
2022-10-30T01:50:36.639Z,17.20
2022-10-30T01:53:28.156Z,15.20
2022-10-30T01:56:17.643Z,13.93
2022-10-30T01:58:52.957Z,11.77
2022-10-30T02:01:21.349Z,12.48
2022-10-30T02:03:48.879Z,12.80
2022-10-30T02:06:16.727Z,12.93
2022-10-30T02:08:43.509Z,13.52
2022-10-30T02:11:10.985Z,13.65
2022-10-30T02:13:41.829Z,14.10
2022-10-30T02:16:09.884Z,15.32
2022-10-30T02:18:36.781Z,13.75
2022-10-30T02:21:03.828Z,13.38
2022-10-30T02:23:31.146Z,15.00
2022-10-30T02:25:57.946Z,15.50
2022-10-30T02:28:26.628Z,17.40
2022-10-30T02:30:53.447Z,17.38
2022-10-30T02:33:24.977Z,17.05
2022-10-30T02:35:54.702Z,18.60
2022-10-30T02:38:21.557Z,19.30
2022-10-30T02:40:50.316Z,18.92
2022-10-30T02:43:17.036Z,18.30
2022-10-30T02:45:43.741Z,18.45
2022-10-30T02:50:42.747Z,18.63
2022-10-30T02:53:09.529Z,17.77
2022-10-30T02:55:36.211Z,18.55
2022-10-30T02:58:03.001Z,17.02
2022-10-30T03:02:58.102Z,16.20
2022-10-30T03:05:25.036Z,15.57
2022-10-30T03:07:51.788Z,14.13
2022-10-30T03:10:18.802Z,15.82
2022-10-30T03:12:45.485Z,15.48
2022-10-30T03:15:12.230Z,16.33
2022-10-30T03:20:11.901Z,16.17
2022-10-30T03:22:38.666Z,15.57
2022-10-30T03:25:05.896Z,16.80
2022-10-30T03:27:33.933Z,17.42
2022-10-30T03:30:00.675Z,17.80
2022-10-30T03:32:28.571Z,17.60
2022-10-30T03:34:55.341Z,17.15
2022-10-30T03:37:22.176Z,16.73
2022-10-30T03:39:48.890Z,17.42
2022-10-30T03:42:15.681Z,17.48
2022-10-30T03:44:42.889Z,17.80
2022-10-30T03:49:43.987Z,15.52
2022-10-30T03:52:13.883Z,15.90
2022-10-30T03:54:40.629Z,16.90
2022-10-30T03:57:08.635Z,17.67
2022-10-30T03:59:58.365Z,17.50
2022-10-30T04:02:53.014Z,17.27
2022-10-30T04:05:22.871Z,17.23
2022-10-30T04:08:00.774Z,16.92
2022-10-30T04:10:30.549Z,19.58
2022-10-30T04:13:06.293Z,19.70
2022-10-30T04:15:34.553Z,19.77
2022-10-30T04:18:01.723Z,20.77
2022-10-30T04:20:30.574Z,20.63
2022-10-30T04:23:03.237Z,21.63
2022-10-30T04:25:33.420Z,21.88
2022-10-30T04:28:01.914Z,21.08
2022-10-30T04:30:28.889Z,21.58
2022-10-30T04:32:56.950Z,21.25
2022-10-30T04:35:26.767Z,20.75
2022-10-30T04:38:00.879Z,20.48
2022-10-30T04:40:30.383Z,20.60
2022-10-30T04:43:02.998Z,20.95
2022-10-30T04:45:30.059Z,21.17
2022-10-30T04:48:05.834Z,20.30
2022-10-30T04:50:34.079Z,20.70
2022-10-30T04:53:16.490Z,20.52
2022-10-30T04:55:45.211Z,20.70
2022-10-30T04:58:13.424Z,20.02
2022-10-30T05:00:42.928Z,19.60
2022-10-30T05:03:34.850Z,20.80
2022-10-30T05:06:07.676Z,20.05
2022-10-30T05:08:37.340Z,20.60
2022-10-30T05:11:15.257Z,20.80
2022-10-30T05:13:42.022Z,21.10
2022-10-30T05:16:08.724Z,19.83
2022-10-30T05:18:35.607Z,20.45
2022-10-30T05:21:02.496Z,20.20
2022-10-30T05:23:29.239Z,19.40
2022-10-30T05:25:56.294Z,20.20
2022-10-30T05:28:23.037Z,19.33
2022-10-30T05:30:55.847Z,18.00
2022-10-30T05:33:45.735Z,17.67
2022-10-30T05:36:13.389Z,18.27
2022-10-30T05:38:41.127Z,19.80
2022-10-30T05:41:11.881Z,18.67
2022-10-30T05:43:38.633Z,19.55
2022-10-30T05:46:05.538Z,19.38
2022-10-30T05:48:32.903Z,17.92
2022-10-30T05:51:00.429Z,16.60
2022-10-30T05:53:30.693Z,15.35
2022-10-30T05:58:31.216Z,15.82
2022-10-30T06:01:06.131Z,15.40
2022-10-30T06:03:54.497Z,17.23
2022-10-30T06:06:22.057Z,17.52
2022-10-30T06:08:49.644Z,16.80
2022-10-30T06:11:32.430Z,17.30
2022-10-30T06:16:37.751Z,18.43
2022-10-30T06:19:18.426Z,18.60
2022-10-30T06:21:46.381Z,18.05
2022-10-30T06:24:15.572Z,19.15
2022-10-30T06:26:49.555Z,18.58
2022-10-30T06:29:16.485Z,19.05
2022-10-30T06:31:43.346Z,19.25
2022-10-30T06:34:10.059Z,16.92
2022-10-30T06:36:39.898Z,17.55
2022-10-30T06:39:06.790Z,18.10
2022-10-30T06:41:41.190Z,16.60
2022-10-30T06:44:46.304Z,17.48
2022-10-30T06:47:13.092Z,16.98
2022-10-30T06:49:43.451Z,16.35
2022-10-30T06:52:10.869Z,15.30
2022-10-30T06:54:37.719Z,15.40
2022-10-30T06:57:22.923Z,16.30
2022-10-30T07:00:18.835Z,17.65
2022-10-30T07:03:18.865Z,17.83
2022-10-30T07:05:48.794Z,17.37
2022-10-30T07:08:15.918Z,18.58
2022-10-30T07:10:43.292Z,19.40
2022-10-30T07:13:23.507Z,19.75
2022-10-30T07:15:55.465Z,19.95
2022-10-30T07:18:24.588Z,19.38
2022-10-30T07:20:56.502Z,18.90
2022-10-30T07:23:24.314Z,18.63
2022-10-30T07:25:53.718Z,18.75
2022-10-30T07:28:32.561Z,18.45
2022-10-30T07:31:24.235Z,16.92
2022-10-30T07:34:28.189Z,17.52
2022-10-30T07:37:13.689Z,17.27
2022-10-30T07:39:45.311Z,16.23
2022-10-30T07:42:20.613Z,15.95
2022-10-30T07:45:08.002Z,14.80
2022-10-30T07:47:58.205Z,14.65
2022-10-30T07:50:39.856Z,13.70
2022-10-30T07:53:07.936Z,13.23
2022-10-30T07:55:34.772Z,12.23
2022-10-30T07:58:01.612Z,11.50
2022-10-30T08:00:49.156Z,11.53
2022-10-30T08:03:27.607Z,11.75
2022-10-30T08:05:58.340Z,11.70
2022-10-30T08:08:32.544Z,10.82
2022-10-30T08:11:17.438Z,11.10
2022-10-30T08:13:44.246Z,10.63
2022-10-30T08:16:11.259Z,10.43
2022-10-30T08:18:42.694Z,11.00
2022-10-30T08:21:10.576Z,11.02
2022-10-30T08:23:44.684Z,10.63
2022-10-30T08:26:14.819Z,9.57
2022-10-30T08:28:41.751Z,9.30
2022-10-30T08:31:10.853Z,9.68
2022-10-30T08:33:56.327Z,9.00
2022-10-30T08:36:43.948Z,8.98
2022-10-30T08:39:13.594Z,9.82
2022-10-30T08:41:58.131Z,8.48
2022-10-30T08:44:26.090Z,8.07
2022-10-30T08:47:11.377Z,9.25
2022-10-30T08:49:39.371Z,8.52
2022-10-30T08:52:09.905Z,8.15
2022-10-30T08:54:36.619Z,7.93
2022-10-30T08:57:03.469Z,8.60
2022-10-30T08:59:30.203Z,7.45
2022-10-30T09:01:59.405Z,8.25
2022-10-30T09:04:26.335Z,7.50
2022-10-30T09:07:18.897Z,7.40
2022-10-30T09:10:15.323Z,7.20
2022-10-30T09:12:42.963Z,6.43
2022-10-30T09:15:09.930Z,6.45
2022-10-30T09:17:48.384Z,5.47
2022-10-30T09:20:16.369Z,6.18
2022-10-30T09:22:43.347Z,5.90
2022-10-30T09:25:10.936Z,6.13
2022-10-30T09:27:57.949Z,5.95
2022-10-30T09:30:28.170Z,5.95
2022-10-30T09:33:05.075Z,5.68
2022-10-30T09:35:55.112Z,5.10
2022-10-30T09:38:22.378Z,4.97
2022-10-30T09:40:50.317Z,4.97
2022-10-30T09:43:43.569Z,4.53
2022-10-30T09:46:37.363Z,4.70
2022-10-30T09:49:18.130Z,4.57
2022-10-30T09:52:12.464Z,4.45
2022-10-30T09:54:45.355Z,4.45
2022-10-30T09:57:48.752Z,4.78
2022-10-30T10:00:48.729Z,4.30
2022-10-30T10:03:57.941Z,4.15
2022-10-30T10:06:52.907Z,4.30
2022-10-30T10:09:51.574Z,4.43
2022-10-30T10:12:58.684Z,4.03
2022-10-30T10:15:53.959Z,3.95
2022-10-30T10:21:22.010Z,3.83
2022-10-30T10:23:51.437Z,4.10
2022-10-30T10:26:43.305Z,3.90
2022-10-30T10:29:10.099Z,4.05
2022-10-30T10:31:42.596Z,3.75
2022-10-30T10:34:23.353Z,4.40
2022-10-30T10:37:28.797Z,4.45
2022-10-30T10:40:20.007Z,3.67
2022-10-30T10:43:10.795Z,3.95
2022-10-30T10:45:47.805Z,3.85
2022-10-30T10:48:27.104Z,4.30
2022-10-30T10:51:06.640Z,3.95
2022-10-30T10:53:44.908Z,3.90
2022-10-30T10:56:12.279Z,4.15
2022-10-30T10:59:05.289Z,4.43
2022-10-30T11:01:39.381Z,4.07
2022-10-30T11:04:12.610Z,4.00
2022-10-30T11:06:42.605Z,4.05
2022-10-30T11:09:23.006Z,4.03
2022-10-30T11:11:51.966Z,4.43
2022-10-30T11:14:22.905Z,3.53
2022-10-30T11:17:12.940Z,4.10
2022-10-30T11:19:39.664Z,3.53
2022-10-30T11:22:28.121Z,4.00
2022-10-30T11:24:54.862Z,3.83
2022-10-30T11:27:28.522Z,4.28
2022-10-30T11:29:59.217Z,4.20
2022-10-30T11:32:32.073Z,4.53
2022-10-30T11:35:02.205Z,3.80
2022-10-30T11:37:31.072Z,3.95
2022-10-30T11:40:13.041Z,4.00
2022-10-30T11:42:46.235Z,3.90
2022-10-30T11:45:19.984Z,3.50
2022-10-30T11:47:47.207Z,4.00
2022-10-30T11:50:29.142Z,4.17
2022-10-30T11:52:59.611Z,4.05
2022-10-30T11:55:36.217Z,4.20
2022-10-30T11:58:05.075Z,3.67
2022-10-30T12:00:35.119Z,3.80
2022-10-30T12:03:03.546Z,4.15
2022-10-30T12:05:35.656Z,3.85
2022-10-30T12:08:08.532Z,3.65
2022-10-30T12:11:00.257Z,3.97
2022-10-30T12:13:31.323Z,4.00
2022-10-30T12:16:18.625Z,3.95
2022-10-30T12:19:08.660Z,3.95
2022-10-30T12:21:39.092Z,4.00
2022-10-30T12:24:13.236Z,4.28
2022-10-30T12:26:40.489Z,4.32
2022-10-30T12:29:15.911Z,4.20
2022-10-30T12:32:05.116Z,4.00
2022-10-30T12:34:31.859Z,3.33
2022-10-30T12:37:26.474Z,4.13
2022-10-30T12:39:53.115Z,4.22
2022-10-30T12:42:23.040Z,3.40
2022-10-30T12:45:27.462Z,3.42
2022-10-30T12:48:09.018Z,3.13
2022-10-30T12:50:49.429Z,4.03
2022-10-30T12:53:31.970Z,3.78
2022-10-30T12:56:25.793Z,3.45
2022-10-30T12:59:08.670Z,3.40
2022-10-30T13:01:42.490Z,3.58
2022-10-30T13:04:18.530Z,3.78
2022-10-30T13:06:51.946Z,3.70
2022-10-30T13:09:32.752Z,3.50
2022-10-30T13:12:20.538Z,3.30
2022-10-30T13:14:57.040Z,3.83
2022-10-30T13:17:23.880Z,3.73
2022-10-30T13:19:51.328Z,3.80
2022-10-30T13:25:05.866Z,3.40
2022-10-30T13:27:49.911Z,3.63
2022-10-30T13:30:30.710Z,3.38
2022-10-30T13:33:35.812Z,3.80
2022-10-30T13:36:11.288Z,3.30
2022-10-30T13:39:03.136Z,3.47
2022-10-30T13:41:57.509Z,3.40
2022-10-30T13:44:49.409Z,3.70
2022-10-30T13:47:30.554Z,3.50
2022-10-30T13:50:26.169Z,3.85
2022-10-30T13:52:58.705Z,3.50
2022-10-30T13:55:29.846Z,3.20
2022-10-30T13:58:15.517Z,3.80
2022-10-30T14:01:00.385Z,3.67
2022-10-30T14:03:29.996Z,2.88
2022-10-30T14:06:10.867Z,3.80
2022-10-30T14:08:43.790Z,3.80
2022-10-30T14:11:15.366Z,3.25
2022-10-30T14:13:55.545Z,3.72
2022-10-30T14:16:35.406Z,3.65
2022-10-30T14:19:08.120Z,3.60
2022-10-30T14:21:54.902Z,3.53
2022-10-30T14:27:05.379Z,3.28
2022-10-30T14:29:34.886Z,3.53
2022-10-30T14:32:22.946Z,3.40
2022-10-30T14:34:55.805Z,3.53
2022-10-30T14:37:28.917Z,3.90
2022-10-30T14:39:57.265Z,3.88
2022-10-30T14:42:36.648Z,3.60
2022-10-30T14:45:25.005Z,3.85
2022-10-30T14:47:57.161Z,3.95
2022-10-30T14:50:27.057Z,3.80
2022-10-30T14:53:05.760Z,4.05
2022-10-30T14:55:46.869Z,3.80
2022-10-30T14:58:19.298Z,4.32
2022-10-30T15:00:47.832Z,3.83
2022-10-30T15:03:45.749Z,4.13
2022-10-30T15:06:21.784Z,5.85
2022-10-30T15:09:21.712Z,5.45
2022-10-30T15:12:09.898Z,5.10
2022-10-30T15:14:53.395Z,5.30
2022-10-30T15:17:40.881Z,9.13
2022-10-30T15:20:32.732Z,7.05
2022-10-30T15:23:25.400Z,7.53
2022-10-30T15:25:54.692Z,6.90
2022-10-30T15:31:07.979Z,7.00
2022-10-30T15:33:40.539Z,7.13
2022-10-30T15:36:21.942Z,7.75
2022-10-30T15:39:11.703Z,7.03
2022-10-30T15:41:48.770Z,7.00
2022-10-30T15:44:22.276Z,6.57
2022-10-30T15:46:54.417Z,6.32
2022-10-30T15:49:32.671Z,5.90
2022-10-30T15:52:01.244Z,6.20
2022-10-30T15:54:29.626Z,5.80
2022-10-30T15:59:53.512Z,5.22
2022-10-30T16:02:23.088Z,5.60
2022-10-30T16:04:50.701Z,5.93
2022-10-30T16:07:25.595Z,5.70
2022-10-30T16:10:04.598Z,6.05
2022-10-30T16:12:33.770Z,6.07
2022-10-30T16:15:25.133Z,6.40
2022-10-30T16:18:16.937Z,6.45
2022-10-30T16:20:49.137Z,6.75
2022-10-30T16:23:20.013Z,6.55
2022-10-30T16:25:54.672Z,6.57
2022-10-30T16:28:24.197Z,6.95
2022-10-30T16:30:51.365Z,6.47
2022-10-30T16:33:26.203Z,6.30
2022-10-30T16:35:55.809Z,6.18
2022-10-30T16:38:26.316Z,6.28
2022-10-30T16:40:53.413Z,6.47
2022-10-30T16:43:33.044Z,6.68
2022-10-30T16:46:22.803Z,6.30
2022-10-30T16:49:01.527Z,6.10
2022-10-30T16:51:29.804Z,12.45
2022-10-30T16:56:31.649Z,10.75
2022-10-30T16:59:07.731Z,8.60
2022-10-30T17:01:35.781Z,7.38
2022-10-30T17:06:40.507Z,6.75
2022-10-30T17:09:27.137Z,7.80
2022-10-30T17:12:19.545Z,6.38
2022-10-30T17:14:55.260Z,6.10
2022-10-30T17:17:28.218Z,5.88
2022-10-30T17:19:57.506Z,6.20
2022-10-30T17:22:25.894Z,6.55
2022-10-30T17:27:33.266Z,6.50
2022-10-30T17:30:00.237Z,8.30
2022-10-30T17:32:29.137Z,7.80
2022-10-30T17:35:01.503Z,8.00
2022-10-30T17:37:28.775Z,7.50
2022-10-30T17:39:58.579Z,7.28
2022-10-30T17:42:25.332Z,7.43
2022-10-30T17:44:52.093Z,7.70
2022-10-30T17:47:20.037Z,6.32
2022-10-30T17:49:47.000Z,6.88
2022-10-30T17:52:15.137Z,6.25
2022-10-30T17:57:13.571Z,5.57
2022-10-30T17:59:41.603Z,5.50
2022-10-30T18:02:17.011Z,5.88
2022-10-30T18:04:48.319Z,6.40
2022-10-30T18:07:19.754Z,6.35
2022-10-30T18:09:46.481Z,7.60
2022-10-30T18:12:16.411Z,28.63
2022-10-30T18:14:45.417Z,12.70
2022-10-30T18:17:12.620Z,12.63
2022-10-30T18:19:39.495Z,8.40
2022-10-30T18:22:06.271Z,7.20
2022-10-30T18:24:33.031Z,7.25
2022-10-30T18:26:59.849Z,6.00
2022-10-30T18:29:29.300Z,4.30
2022-10-30T18:31:56.058Z,4.35
2022-10-30T18:34:22.859Z,4.20
2022-10-30T18:36:49.734Z,4.40
2022-10-30T18:39:16.703Z,4.70
2022-10-30T18:41:45.477Z,4.75
2022-10-30T18:44:19.212Z,4.45
2022-10-30T18:46:46.673Z,4.60
2022-10-30T18:49:15.821Z,4.05
2022-10-30T18:51:42.683Z,5.18
2022-10-30T18:54:16.685Z,4.75
2022-10-30T18:56:43.587Z,5.30
2022-10-30T18:59:10.546Z,5.57
2022-10-30T19:01:40.309Z,5.28
2022-10-30T19:04:10.990Z,5.28
2022-10-30T19:06:38.990Z,5.38
2022-10-30T19:09:06.143Z,5.35
2022-10-30T19:11:33.625Z,5.47
2022-10-30T19:14:01.794Z,5.25
2022-10-30T19:18:59.106Z,5.53
2022-10-30T19:21:26.243Z,5.90
2022-10-30T19:23:54.987Z,6.20
2022-10-30T19:26:21.824Z,6.00
2022-10-30T19:28:48.614Z,6.13
2022-10-30T19:31:20.628Z,6.10
2022-10-30T19:33:56.144Z,6.38
2022-10-30T19:36:29.136Z,6.78
2022-10-30T19:38:56.205Z,6.70
2022-10-30T19:41:24.623Z,6.82
2022-10-30T19:43:52.481Z,9.48
2022-10-30T19:46:21.798Z,7.50
2022-10-30T19:48:57.181Z,5.95
2022-10-30T19:51:25.580Z,4.68
2022-10-30T19:53:53.711Z,3.72
2022-10-30T19:56:21.765Z,4.20
2022-10-30T19:58:49.207Z,4.40
2022-10-30T20:01:16.324Z,4.72
2022-10-30T20:03:43.622Z,4.90
2022-10-30T20:06:14.311Z,4.82
2022-10-30T20:08:41.587Z,4.80
2022-10-30T20:11:08.637Z,6.07
2022-10-30T20:13:36.907Z,6.50
2022-10-30T20:18:35.009Z,6.30
2022-10-30T20:21:04.308Z,6.78
2022-10-30T20:23:31.342Z,6.30
2022-10-30T20:26:01.606Z,6.85
2022-10-30T20:28:30.287Z,6.57
2022-10-30T20:30:57.431Z,4.93
2022-10-30T20:33:25.727Z,4.25
2022-10-30T20:35:54.525Z,4.20
2022-10-30T20:38:26.453Z,4.60
2022-10-30T20:40:53.434Z,8.73
2022-10-30T20:43:23.458Z,4.15
2022-10-30T20:45:50.603Z,13.10
2022-10-30T20:48:20.091Z,10.35
2022-10-30T20:50:50.659Z,8.60
2022-10-30T20:53:17.766Z,8.75
2022-10-30T20:55:45.182Z,13.07
2022-10-30T20:58:12.397Z,26.27
2022-10-30T21:00:39.283Z,36.90
2022-10-30T21:03:06.706Z,21.42
2022-10-30T21:05:50.108Z,9.23
2022-10-30T21:08:16.897Z,6.65
2022-10-30T21:10:43.704Z,9.30
2022-10-30T21:13:13.574Z,8.93
2022-10-30T21:15:41.625Z,7.65
2022-10-30T21:18:09.602Z,8.40
2022-10-30T21:20:36.952Z,9.55
2022-10-30T21:23:04.390Z,15.03
2022-10-30T21:25:32.375Z,14.02
2022-10-30T21:28:00.276Z,13.43
2022-10-30T21:30:30.154Z,16.73
2022-10-30T21:32:57.892Z,16.55
2022-10-30T21:35:24.962Z,18.70
2022-10-30T21:37:51.745Z,18.45
2022-10-30T21:40:18.439Z,18.00
2022-10-30T21:42:47.989Z,17.98
2022-10-30T21:45:14.880Z,16.50
2022-10-30T21:47:41.601Z,21.88
2022-10-30T21:50:12.717Z,20.55
2022-10-30T21:52:40.419Z,18.30
2022-10-30T21:55:07.779Z,24.07
2022-10-30T21:57:34.980Z,15.27
2022-10-30T22:00:05.798Z,15.18
2022-10-30T22:02:34.896Z,11.93
2022-10-30T22:05:04.623Z,9.70
2022-10-30T22:07:31.296Z,8.55
2022-10-30T22:09:57.984Z,9.00
2022-10-30T22:12:24.692Z,9.20
2022-10-30T22:14:51.370Z,8.52
2022-10-30T22:17:18.078Z,9.23
2022-10-30T22:19:44.923Z,9.02
2022-10-30T22:22:11.701Z,10.05
2022-10-30T22:24:40.334Z,12.00
2022-10-30T22:27:09.457Z,12.90
2022-10-30T22:29:36.461Z,14.35
2022-10-30T22:32:03.532Z,15.60
2022-10-30T22:34:30.257Z,17.58
2022-10-30T22:36:56.952Z,17.45
2022-10-30T22:39:23.735Z,13.73
2022-10-30T22:41:50.465Z,13.07
2022-10-30T22:44:19.913Z,8.40
2022-10-30T22:46:46.715Z,10.32
2022-10-30T22:49:13.613Z,11.85
2022-10-30T22:51:40.605Z,10.60
2022-10-30T22:54:12.171Z,11.75
2022-10-30T22:56:40.331Z,11.00
2022-10-30T22:59:12.515Z,11.90
2022-10-30T23:01:42.187Z,11.55
2022-10-30T23:04:11.374Z,13.35
2022-10-30T23:06:38.344Z,13.38
2022-10-30T23:09:11.107Z,26.08
2022-10-30T23:11:37.824Z,23.45
2022-10-30T23:14:04.532Z,17.60
2022-10-30T23:16:31.242Z,15.02
2022-10-30T23:19:00.228Z,13.73
2022-10-30T23:21:30.173Z,13.18
2022-10-30T23:23:58.132Z,11.50
2022-10-30T23:26:27.785Z,11.65
2022-10-30T23:28:56.106Z,11.43
2022-10-30T23:31:27.678Z,11.65
2022-10-30T23:33:56.471Z,11.95
2022-10-30T23:36:23.932Z,13.75
2022-10-30T23:38:55.048Z,15.52
2022-10-30T23:41:23.369Z,12.57
2022-10-30T23:46:20.210Z,11.55
2022-10-30T23:48:47.058Z,10.25
2022-10-30T23:51:13.893Z,9.68
2022-10-30T23:53:40.731Z,8.43
2022-10-30T23:56:07.862Z,8.90
2022-10-30T23:58:34.822Z,9.63
